sensor_id;sensor_type;location;lat;lon;timestamp;temperature;humidity
68578;SHT31;61668;45.388;11.784;2022-11-20T00:01:20;10.03;74.62
68578;SHT31;61668;45.388;11.784;2022-11-20T00:03:50;10.01;74.61
68578;SHT31;61668;45.388;11.784;2022-11-20T00:06:18;9.97;74.64
68578;SHT31;61668;45.388;11.784;2022-11-20T00:08:45;9.93;74.67
68578;SHT31;61668;45.388;11.784;2022-11-20T00:11:12;9.88;74.68
68578;SHT31;61668;45.388;11.784;2022-11-20T00:13:41;9.84;74.70
68578;SHT31;61668;45.388;11.784;2022-11-20T00:16:08;9.82;74.77
68578;SHT31;61668;45.388;11.784;2022-11-20T00:18:36;9.80;74.80
68578;SHT31;61668;45.388;11.784;2022-11-20T00:23:57;9.77;74.80
68578;SHT31;61668;45.388;11.784;2022-11-20T00:26:24;9.76;74.80
68578;SHT31;61668;45.388;11.784;2022-11-20T00:28:55;9.76;74.80
68578;SHT31;61668;45.388;11.784;2022-11-20T00:31:24;9.74;74.78
68578;SHT31;61668;45.388;11.784;2022-11-20T00:33:50;9.73;74.68
68578;SHT31;61668;45.388;11.784;2022-11-20T00:36:20;9.72;74.62
68578;SHT31;61668;45.388;11.784;2022-11-20T00:38:51;9.70;74.60
68578;SHT31;61668;45.388;11.784;2022-11-20T00:41:19;9.69;74.52
68578;SHT31;61668;45.388;11.784;2022-11-20T00:43:45;9.67;74.53
68578;SHT31;61668;45.388;11.784;2022-11-20T00:46:15;9.65;74.47
68578;SHT31;61668;45.388;11.784;2022-11-20T00:48:43;9.63;74.47
68578;SHT31;61668;45.388;11.784;2022-11-20T00:51:10;9.59;74.49
68578;SHT31;61668;45.388;11.784;2022-11-20T00:53:39;9.57;74.50
68578;SHT31;61668;45.388;11.784;2022-11-20T00:56:06;9.54;74.50
68578;SHT31;61668;45.388;11.784;2022-11-20T00:58:38;9.52;74.50
68578;SHT31;61668;45.388;11.784;2022-11-20T01:01:07;9.51;74.53
68578;SHT31;61668;45.388;11.784;2022-11-20T01:03:37;9.50;74.56
68578;SHT31;61668;45.388;11.784;2022-11-20T01:06:14;9.50;74.62
68578;SHT31;61668;45.388;11.784;2022-11-20T01:08:52;9.50;74.68
68578;SHT31;61668;45.388;11.784;2022-11-20T01:11:22;9.49;74.68
68578;SHT31;61668;45.388;11.784;2022-11-20T01:13:56;9.47;74.70
68578;SHT31;61668;45.388;11.784;2022-11-20T01:16:28;9.45;74.75
68578;SHT31;61668;45.388;11.784;2022-11-20T01:18:58;9.44;74.80
68578;SHT31;61668;45.388;11.784;2022-11-20T01:21:30;9.44;74.86
68578;SHT31;61668;45.388;11.784;2022-11-20T01:24:02;9.41;74.90
68578;SHT31;61668;45.388;11.784;2022-11-20T01:26:31;9.38;74.96
68578;SHT31;61668;45.388;11.784;2022-11-20T01:28:59;9.37;75.01
68578;SHT31;61668;45.388;11.784;2022-11-20T01:31:27;9.35;75.09
68578;SHT31;61668;45.388;11.784;2022-11-20T01:33:56;9.33;75.15
68578;SHT31;61668;45.388;11.784;2022-11-20T01:36:26;9.30;75.23
68578;SHT31;61668;45.388;11.784;2022-11-20T01:38:56;9.28;75.38
68578;SHT31;61668;45.388;11.784;2022-11-20T01:41:25;9.25;75.56
68578;SHT31;61668;45.388;11.784;2022-11-20T01:44:12;9.23;75.61
68578;SHT31;61668;45.388;11.784;2022-11-20T01:46:51;9.21;75.70
68578;SHT31;61668;45.388;11.784;2022-11-20T01:49:34;9.18;75.70
68578;SHT31;61668;45.388;11.784;2022-11-20T01:55:10;9.13;75.84
68578;SHT31;61668;45.388;11.784;2022-11-20T01:57:44;9.09;75.90
68578;SHT31;61668;45.388;11.784;2022-11-20T02:00:12;9.06;75.98
68578;SHT31;61668;45.388;11.784;2022-11-20T02:02:44;9.04;76.08
68578;SHT31;61668;45.388;11.784;2022-11-20T02:05:22;9.02;76.13
68578;SHT31;61668;45.388;11.784;2022-11-20T02:07:56;8.99;76.20
68578;SHT31;61668;45.388;11.784;2022-11-20T02:10:23;8.97;76.31
68578;SHT31;61668;45.388;11.784;2022-11-20T02:12:49;8.95;76.39
68578;SHT31;61668;45.388;11.784;2022-11-20T02:15:33;8.91;76.41
68578;SHT31;61668;45.388;11.784;2022-11-20T02:17:59;8.87;76.51
68578;SHT31;61668;45.388;11.784;2022-11-20T02:20:25;8.84;76.60
68578;SHT31;61668;45.388;11.784;2022-11-20T02:22:54;8.82;76.69
68578;SHT31;61668;45.388;11.784;2022-11-20T02:25:45;8.80;76.74
68578;SHT31;61668;45.388;11.784;2022-11-20T02:28:12;8.79;76.80
68578;SHT31;61668;45.388;11.784;2022-11-20T02:30:38;8.80;76.80
68578;SHT31;61668;45.388;11.784;2022-11-20T02:33:04;8.79;76.80
68578;SHT31;61668;45.388;11.784;2022-11-20T02:37:55;8.75;76.85
68578;SHT31;61668;45.388;11.784;2022-11-20T02:40:23;8.73;76.90
68578;SHT31;61668;45.388;11.784;2022-11-20T02:42:52;8.70;76.98
68578;SHT31;61668;45.388;11.784;2022-11-20T02:45:21;8.67;77.07
68578;SHT31;61668;45.388;11.784;2022-11-20T02:47:48;8.65;77.09
68578;SHT31;61668;45.388;11.784;2022-11-20T02:50:14;8.63;77.10
68578;SHT31;61668;45.388;11.784;2022-11-20T02:52:41;8.59;77.10
68578;SHT31;61668;45.388;11.784;2022-11-20T02:55:07;8.55;77.17
68578;SHT31;61668;45.388;11.784;2022-11-20T02:57:33;8.51;77.27
68578;SHT31;61668;45.388;11.784;2022-11-20T02:59:58;8.48;77.39
68578;SHT31;61668;45.388;11.784;2022-11-20T03:02:24;8.45;77.42
68578;SHT31;61668;45.388;11.784;2022-11-20T03:04:49;8.42;77.41
68578;SHT31;61668;45.388;11.784;2022-11-20T03:07:15;8.39;77.42
68578;SHT31;61668;45.388;11.784;2022-11-20T03:09:40;8.34;77.49
68578;SHT31;61668;45.388;11.784;2022-11-20T03:12:06;8.32;77.54
68578;SHT31;61668;45.388;11.784;2022-11-20T03:14:32;8.28;77.60
68578;SHT31;61668;45.388;11.784;2022-11-20T03:16:57;8.27;77.66
68578;SHT31;61668;45.388;11.784;2022-11-20T03:19:23;8.24;77.73
68578;SHT31;61668;45.388;11.784;2022-11-20T03:21:49;8.20;77.79
68578;SHT31;61668;45.388;11.784;2022-11-20T03:24:15;8.18;77.80
68578;SHT31;61668;45.388;11.784;2022-11-20T03:26:40;8.15;77.84
68578;SHT31;61668;45.388;11.784;2022-11-20T03:29:06;8.13;77.82
68578;SHT31;61668;45.388;11.784;2022-11-20T03:31:36;8.09;77.83
68578;SHT31;61668;45.388;11.784;2022-11-20T03:34:05;8.05;77.94
68578;SHT31;61668;45.388;11.784;2022-11-20T03:36:31;8.01;77.95
68578;SHT31;61668;45.388;11.784;2022-11-20T03:38:57;7.96;77.99
68578;SHT31;61668;45.388;11.784;2022-11-20T03:41:27;7.92;78.00
68578;SHT31;61668;45.388;11.784;2022-11-20T03:44:00;7.88;78.08
68578;SHT31;61668;45.388;11.784;2022-11-20T03:46:28;7.83;78.17
68578;SHT31;61668;45.388;11.784;2022-11-20T03:48:54;7.80;78.20
68578;SHT31;61668;45.388;11.784;2022-11-20T03:51:25;7.76;78.26
68578;SHT31;61668;45.388;11.784;2022-11-20T03:53:54;7.73;78.39
68578;SHT31;61668;45.388;11.784;2022-11-20T03:56:23;7.73;78.47
68578;SHT31;61668;45.388;11.784;2022-11-20T03:58:54;7.72;78.50
68578;SHT31;61668;45.388;11.784;2022-11-20T04:01:23;7.71;78.47
68578;SHT31;61668;45.388;11.784;2022-11-20T04:03:53;7.70;78.50
68578;SHT31;61668;45.388;11.784;2022-11-20T04:06:21;7.70;78.52
68578;SHT31;61668;45.388;11.784;2022-11-20T04:08:58;7.69;78.56
68578;SHT31;61668;45.388;11.784;2022-11-20T04:13:54;7.68;78.50
68578;SHT31;61668;45.388;11.784;2022-11-20T04:16:25;7.68;78.50
68578;SHT31;61668;45.388;11.784;2022-11-20T04:18:54;7.67;78.49
68578;SHT31;61668;45.388;11.784;2022-11-20T04:21:22;7.66;78.49
68578;SHT31;61668;45.388;11.784;2022-11-20T04:23:49;7.66;78.42
68578;SHT31;61668;45.388;11.784;2022-11-20T04:26:16;7.67;78.40
68578;SHT31;61668;45.388;11.784;2022-11-20T04:28:41;7.67;78.40
68578;SHT31;61668;45.388;11.784;2022-11-20T04:31:10;7.67;78.40
68578;SHT31;61668;45.388;11.784;2022-11-20T04:33:39;7.67;78.39
68578;SHT31;61668;45.388;11.784;2022-11-20T04:36:06;7.66;78.33
68578;SHT31;61668;45.388;11.784;2022-11-20T04:38:37;7.66;78.29
68578;SHT31;61668;45.388;11.784;2022-11-20T04:41:04;7.67;78.21
68578;SHT31;61668;45.388;11.784;2022-11-20T04:43:38;7.67;78.29
68578;SHT31;61668;45.388;11.784;2022-11-20T04:46:04;7.66;78.32
68578;SHT31;61668;45.388;11.784;2022-11-20T04:48:29;7.66;78.44
68578;SHT31;61668;45.388;11.784;2022-11-20T04:50:55;7.65;78.49
68578;SHT31;61668;45.388;11.784;2022-11-20T04:53:21;7.62;78.64
68578;SHT31;61668;45.388;11.784;2022-11-20T04:55:48;7.57;78.86
68578;SHT31;61668;45.388;11.784;2022-11-20T04:58:14;7.54;79.07
68578;SHT31;61668;45.388;11.784;2022-11-20T05:00:40;7.53;79.26
68578;SHT31;61668;45.388;11.784;2022-11-20T05:03:06;7.53;79.40
68578;SHT31;61668;45.388;11.784;2022-11-20T05:05:33;7.53;79.50
68578;SHT31;61668;45.388;11.784;2022-11-20T05:07:59;7.53;79.60
68578;SHT31;61668;45.388;11.784;2022-11-20T05:10:25;7.53;79.61
68578;SHT31;61668;45.388;11.784;2022-11-20T05:12:52;7.53;79.66
68578;SHT31;61668;45.388;11.784;2022-11-20T05:15:18;7.55;79.70
68578;SHT31;61668;45.388;11.784;2022-11-20T05:17:50;7.55;79.70
68578;SHT31;61668;45.388;11.784;2022-11-20T05:20:17;7.57;79.70
68578;SHT31;61668;45.388;11.784;2022-11-20T05:22:44;7.54;79.72
68578;SHT31;61668;45.388;11.784;2022-11-20T05:25:10;7.51;79.70
68578;SHT31;61668;45.388;11.784;2022-11-20T05:27:36;7.48;79.72
68578;SHT31;61668;45.388;11.784;2022-11-20T05:30:03;7.42;79.80
68578;SHT31;61668;45.388;11.784;2022-11-20T05:32:31;7.37;79.80
68578;SHT31;61668;45.388;11.784;2022-11-20T05:34:56;7.35;79.86
68578;SHT31;61668;45.388;11.784;2022-11-20T05:37:22;7.33;79.90
68578;SHT31;61668;45.388;11.784;2022-11-20T05:39:47;7.32;79.92
68578;SHT31;61668;45.388;11.784;2022-11-20T05:42:13;7.33;80.00
68578;SHT31;61668;45.388;11.784;2022-11-20T05:45:00;7.34;80.00
68578;SHT31;61668;45.388;11.784;2022-11-20T05:47:31;7.33;79.98
68578;SHT31;61668;45.388;11.784;2022-11-20T05:49:58;7.30;79.90
68578;SHT31;61668;45.388;11.784;2022-11-20T05:52:24;7.27;79.90
68578;SHT31;61668;45.388;11.784;2022-11-20T05:54:54;7.22;79.90
68578;SHT31;61668;45.388;11.784;2022-11-20T05:57:20;7.18;79.90
68578;SHT31;61668;45.388;11.784;2022-11-20T05:59:45;7.15;79.83
68578;SHT31;61668;45.388;11.784;2022-11-20T06:02:11;7.12;79.86
68578;SHT31;61668;45.388;11.784;2022-11-20T06:04:36;7.11;79.83
68578;SHT31;61668;45.388;11.784;2022-11-20T06:07:02;7.08;79.77
68578;SHT31;61668;45.388;11.784;2022-11-20T06:09:27;7.03;79.71
68578;SHT31;61668;45.388;11.784;2022-11-20T06:11:53;7.00;79.71
68578;SHT31;61668;45.388;11.784;2022-11-20T06:14:18;6.96;79.78
68578;SHT31;61668;45.388;11.784;2022-11-20T06:16:44;6.94;79.80
68578;SHT31;61668;45.388;11.784;2022-11-20T06:19:09;6.94;79.77
68578;SHT31;61668;45.388;11.784;2022-11-20T06:21:34;6.96;79.72
68578;SHT31;61668;45.388;11.784;2022-11-20T06:24:00;6.99;79.66
68578;SHT31;61668;45.388;11.784;2022-11-20T06:26:26;6.97;79.60
68578;SHT31;61668;45.388;11.784;2022-11-20T06:28:53;6.96;79.61
68578;SHT31;61668;45.388;11.784;2022-11-20T06:31:22;6.93;79.62
68578;SHT31;61668;45.388;11.784;2022-11-20T06:33:49;6.91;79.70
68578;SHT31;61668;45.388;11.784;2022-11-20T06:36:16;6.88;79.70
68578;SHT31;61668;45.388;11.784;2022-11-20T06:38:44;6.84;79.70
68578;SHT31;61668;45.388;11.784;2022-11-20T06:41:11;6.82;79.69
68578;SHT31;61668;45.388;11.784;2022-11-20T06:43:42;6.83;79.65
68578;SHT31;61668;45.388;11.784;2022-11-20T06:46:12;6.84;79.67
68578;SHT31;61668;45.388;11.784;2022-11-20T06:48:39;6.88;79.70
68578;SHT31;61668;45.388;11.784;2022-11-20T06:51:06;6.92;79.70
68578;SHT31;61668;45.388;11.784;2022-11-20T06:53:32;6.95;79.63
68578;SHT31;61668;45.388;11.784;2022-11-20T06:55:59;6.97;79.58
68578;SHT31;61668;45.388;11.784;2022-11-20T06:58:28;6.97;79.55
68578;SHT31;61668;45.388;11.784;2022-11-20T07:00:59;6.96;79.50
68578;SHT31;61668;45.388;11.784;2022-11-20T07:03:26;6.95;79.48
68578;SHT31;61668;45.388;11.784;2022-11-20T07:05:53;6.93;79.49
68578;SHT31;61668;45.388;11.784;2022-11-20T07:08:21;6.92;79.50
68578;SHT31;61668;45.388;11.784;2022-11-20T07:10:46;6.93;79.54
68578;SHT31;61668;45.388;11.784;2022-11-20T07:13:12;6.97;79.59
68578;SHT31;61668;45.388;11.784;2022-11-20T07:15:38;7.05;79.59
68578;SHT31;61668;45.388;11.784;2022-11-20T07:18:04;7.12;79.58
68578;SHT31;61668;45.388;11.784;2022-11-20T07:20:29;7.18;79.48
68578;SHT31;61668;45.388;11.784;2022-11-20T07:22:55;7.24;79.41
68578;SHT31;61668;45.388;11.784;2022-11-20T07:25:22;7.27;79.40
68578;SHT31;61668;45.388;11.784;2022-11-20T07:27:50;7.27;79.37
68578;SHT31;61668;45.388;11.784;2022-11-20T07:30:15;7.30;79.41
68578;SHT31;61668;45.388;11.784;2022-11-20T07:32:41;7.30;79.47
68578;SHT31;61668;45.388;11.784;2022-11-20T07:35:07;7.36;79.46
68578;SHT31;61668;45.388;11.784;2022-11-20T07:37:36;7.41;79.40
68578;SHT31;61668;45.388;11.784;2022-11-20T07:40:02;7.45;79.41
68578;SHT31;61668;45.388;11.784;2022-11-20T07:42:28;7.51;79.41
68578;SHT31;61668;45.388;11.784;2022-11-20T07:44:54;7.57;79.39
68578;SHT31;61668;45.388;11.784;2022-11-20T07:47:19;7.63;79.34
68578;SHT31;61668;45.388;11.784;2022-11-20T07:49:45;7.69;79.25
68578;SHT31;61668;45.388;11.784;2022-11-20T07:52:10;7.77;79.20
68578;SHT31;61668;45.388;11.784;2022-11-20T07:54:35;7.85;79.20
68578;SHT31;61668;45.388;11.784;2022-11-20T07:57:01;7.96;79.27
68578;SHT31;61668;45.388;11.784;2022-11-20T07:59:26;8.08;79.20
68578;SHT31;61668;45.388;11.784;2022-11-20T08:01:52;8.27;79.07
68578;SHT31;61668;45.388;11.784;2022-11-20T08:04:17;8.57;78.66
68578;SHT31;61668;45.388;11.784;2022-11-20T08:06:43;8.92;78.08
68578;SHT31;61668;45.388;11.784;2022-11-20T08:09:08;9.29;77.46
68578;SHT31;61668;45.388;11.784;2022-11-20T08:11:34;9.71;76.94
68578;SHT31;61668;45.388;11.784;2022-11-20T08:14:18;10.22;76.08
68578;SHT31;61668;45.388;11.784;2022-11-20T08:16:45;10.73;75.37
68578;SHT31;61668;45.388;11.784;2022-11-20T08:19:13;11.26;74.40
68578;SHT31;61668;45.388;11.784;2022-11-20T08:21:41;11.75;73.44
68578;SHT31;61668;45.388;11.784;2022-11-20T08:24:09;12.22;72.62
68578;SHT31;61668;45.388;11.784;2022-11-20T08:26:35;12.68;71.83
68578;SHT31;61668;45.388;11.784;2022-11-20T08:29:03;13.16;70.99
68578;SHT31;61668;45.388;11.784;2022-11-20T08:31:29;13.57;69.97
68578;SHT31;61668;45.388;11.784;2022-11-20T08:33:55;13.99;69.24
68578;SHT31;61668;45.388;11.784;2022-11-20T08:36:22;14.38;68.46
68578;SHT31;61668;45.388;11.784;2022-11-20T08:38:52;14.74;67.32
68578;SHT31;61668;45.388;11.784;2022-11-20T08:41:20;15.10;66.63
68578;SHT31;61668;45.388;11.784;2022-11-20T08:43:50;15.49;65.65
68578;SHT31;61668;45.388;11.784;2022-11-20T08:46:17;15.85;64.48
68578;SHT31;61668;45.388;11.784;2022-11-20T08:48:43;16.25;63.89
68578;SHT31;61668;45.388;11.784;2022-11-20T08:51:10;16.60;62.76
68578;SHT31;61668;45.388;11.784;2022-11-20T08:53:36;16.92;61.68
68578;SHT31;61668;45.388;11.784;2022-11-20T08:56:03;17.24;60.80
68578;SHT31;61668;45.388;11.784;2022-11-20T08:58:29;17.51;60.22
68578;SHT31;61668;45.388;11.784;2022-11-20T09:00:55;17.73;58.98
68578;SHT31;61668;45.388;11.784;2022-11-20T09:03:20;17.97;58.77
68578;SHT31;61668;45.388;11.784;2022-11-20T09:05:46;18.27;58.34
68578;SHT31;61668;45.388;11.784;2022-11-20T09:08:11;18.57;57.92
68578;SHT31;61668;45.388;11.784;2022-11-20T09:10:37;18.86;57.16
68578;SHT31;61668;45.388;11.784;2022-11-20T09:13:04;19.17;56.31
68578;SHT31;61668;45.388;11.784;2022-11-20T09:15:31;19.42;55.14
68578;SHT31;61668;45.388;11.784;2022-11-20T09:18:01;19.59;54.30
68578;SHT31;61668;45.388;11.784;2022-11-20T09:20:29;19.80;54.45
68578;SHT31;61668;45.388;11.784;2022-11-20T09:22:56;20.02;53.67
68578;SHT31;61668;45.388;11.784;2022-11-20T09:25:22;20.18;52.72
68578;SHT31;61668;45.388;11.784;2022-11-20T09:27:48;20.27;52.47
68578;SHT31;61668;45.388;11.784;2022-11-20T09:30:22;20.34;51.93
68578;SHT31;61668;45.388;11.784;2022-11-20T09:32:48;20.37;51.74
68578;SHT31;61668;45.388;11.784;2022-11-20T09:35:14;20.36;51.36
68578;SHT31;61668;45.388;11.784;2022-11-20T09:37:39;20.24;51.29
68578;SHT31;61668;45.388;11.784;2022-11-20T09:40:05;20.11;51.46
68578;SHT31;61668;45.388;11.784;2022-11-20T09:51:57;18.97;51.53
68578;SHT31;61668;45.388;11.784;2022-11-20T09:54:55;18.54;51.78
68578;SHT31;61668;45.388;11.784;2022-11-20T09:57:23;18.23;52.72
68578;SHT31;61668;45.388;11.784;2022-11-20T10:00:02;17.95;52.64
68578;SHT31;61668;45.388;11.784;2022-11-20T10:05:22;17.51;53.40
68578;SHT31;61668;45.388;11.784;2022-11-20T10:13:21;16.96;54.90
68578;SHT31;61668;45.388;11.784;2022-11-20T10:25:47;16.23;56.81
68578;SHT31;61668;45.388;11.784;2022-11-20T10:31:02;16.03;57.22
68578;SHT31;61668;45.388;11.784;2022-11-20T10:33:56;15.97;57.73
68578;SHT31;61668;45.388;11.784;2022-11-20T10:36:28;15.95;57.98
68578;SHT31;61668;45.388;11.784;2022-11-20T10:39:03;15.93;57.92
68578;SHT31;61668;45.388;11.784;2022-11-20T10:41:59;15.90;58.26
68578;SHT31;61668;45.388;11.784;2022-11-20T10:44:29;15.84;58.36
68578;SHT31;61668;45.388;11.784;2022-11-20T10:47:19;15.77;58.55
68578;SHT31;61668;45.388;11.784;2022-11-20T10:49:51;15.74;59.09
68578;SHT31;61668;45.388;11.784;2022-11-20T11:00:34;15.50;59.27
68578;SHT31;61668;45.388;11.784;2022-11-20T11:02:59;15.41;58.91
68578;SHT31;61668;45.388;11.784;2022-11-20T11:08:37;15.36;57.90
68578;SHT31;61668;45.388;11.784;2022-11-20T11:14:07;15.35;56.72
68578;SHT31;61668;45.388;11.784;2022-11-20T11:19:59;15.36;55.76
68578;SHT31;61668;45.388;11.784;2022-11-20T11:22:49;15.33;55.61
68578;SHT31;61668;45.388;11.784;2022-11-20T11:28:23;15.29;55.54
68578;SHT31;61668;45.388;11.784;2022-11-20T11:30:50;15.28;55.77
68578;SHT31;61668;45.388;11.784;2022-11-20T11:38:35;15.20;55.43
68578;SHT31;61668;45.388;11.784;2022-11-20T11:41:13;15.17;56.14
68578;SHT31;61668;45.388;11.784;2022-11-20T11:43:55;15.14;55.79
68578;SHT31;61668;45.388;11.784;2022-11-20T11:46:58;15.09;55.64
68578;SHT31;61668;45.388;11.784;2022-11-20T11:49:24;15.05;55.69
68578;SHT31;61668;45.388;11.784;2022-11-20T11:51:55;15.00;56.06
68578;SHT31;61668;45.388;11.784;2022-11-20T11:59:52;14.90;56.22
68578;SHT31;61668;45.388;11.784;2022-11-20T12:05:23;14.87;56.67
68578;SHT31;61668;45.388;11.784;2022-11-20T12:10:43;14.82;56.36
68578;SHT31;61668;45.388;11.784;2022-11-20T12:16:18;14.83;56.48
68578;SHT31;61668;45.388;11.784;2022-11-20T12:18:45;14.85;56.86
68578;SHT31;61668;45.388;11.784;2022-11-20T12:21:30;14.87;57.01
68578;SHT31;61668;45.388;11.784;2022-11-20T12:30:23;14.89;56.32
68578;SHT31;61668;45.388;11.784;2022-11-20T12:38:57;14.95;55.56
68578;SHT31;61668;45.388;11.784;2022-11-20T12:51:08;14.76;55.74
68578;SHT31;61668;45.388;11.784;2022-11-20T12:56:54;14.68;55.79
68578;SHT31;61668;45.388;11.784;2022-11-20T12:59:57;14.66;55.04
68578;SHT31;61668;45.388;11.784;2022-11-20T13:08:23;14.68;55.71
68578;SHT31;61668;45.388;11.784;2022-11-20T13:11:07;14.68;55.55
68578;SHT31;61668;45.388;11.784;2022-11-20T13:19:14;14.69;56.02
68578;SHT31;61668;45.388;11.784;2022-11-20T13:21:43;14.69;56.35
68578;SHT31;61668;45.388;11.784;2022-11-20T13:29:33;14.67;56.01
68578;SHT31;61668;45.388;11.784;2022-11-20T13:32:17;14.65;55.82
68578;SHT31;61668;45.388;11.784;2022-11-20T13:34:52;14.63;55.95
68578;SHT31;61668;45.388;11.784;2022-11-20T13:37:32;14.59;55.68
68578;SHT31;61668;45.388;11.784;2022-11-20T13:42:38;14.54;55.55
68578;SHT31;61668;45.388;11.784;2022-11-20T13:45:11;14.53;56.06
68578;SHT31;61668;45.388;11.784;2022-11-20T13:47:51;14.49;56.16
68578;SHT31;61668;45.388;11.784;2022-11-20T13:50:18;14.47;56.04
68578;SHT31;61668;45.388;11.784;2022-11-20T13:52:57;14.45;56.28
68578;SHT31;61668;45.388;11.784;2022-11-20T13:55:59;14.42;55.90
68578;SHT31;61668;45.388;11.784;2022-11-20T14:01:24;14.37;56.23
68578;SHT31;61668;45.388;11.784;2022-11-20T14:03:53;14.35;56.21
68578;SHT31;61668;45.388;11.784;2022-11-20T14:08:55;14.30;56.86
68578;SHT31;61668;45.388;11.784;2022-11-20T14:11:22;14.29;57.10
68578;SHT31;61668;45.388;11.784;2022-11-20T14:16:40;14.23;56.61
68578;SHT31;61668;45.388;11.784;2022-11-20T14:21:49;14.16;56.76
68578;SHT31;61668;45.388;11.784;2022-11-20T14:24:31;14.13;57.06
68578;SHT31;61668;45.388;11.784;2022-11-20T14:26:57;14.09;57.23
68578;SHT31;61668;45.388;11.784;2022-11-20T14:29:25;14.07;57.59
68578;SHT31;61668;45.388;11.784;2022-11-20T14:31:55;14.03;57.66
68578;SHT31;61668;45.388;11.784;2022-11-20T14:34:24;14.00;57.94
68578;SHT31;61668;45.388;11.784;2022-11-20T14:37:00;13.97;58.41
68578;SHT31;61668;45.388;11.784;2022-11-20T14:39:34;13.93;58.64
68578;SHT31;61668;45.388;11.784;2022-11-20T14:42:23;13.90;58.80
68578;SHT31;61668;45.388;11.784;2022-11-20T14:44:57;13.86;58.98
68578;SHT31;61668;45.388;11.784;2022-11-20T14:47:25;13.82;59.11
68578;SHT31;61668;45.388;11.784;2022-11-20T14:49:55;13.80;59.19
68578;SHT31;61668;45.388;11.784;2022-11-20T14:52:23;13.77;59.52
68578;SHT31;61668;45.388;11.784;2022-11-20T14:57:29;13.71;60.03
68578;SHT31;61668;45.388;11.784;2022-11-20T15:00:19;13.67;60.32
68578;SHT31;61668;45.388;11.784;2022-11-20T15:02:48;13.62;60.45
68578;SHT31;61668;45.388;11.784;2022-11-20T15:05:16;13.58;60.55
68578;SHT31;61668;45.388;11.784;2022-11-20T15:07:47;13.52;60.64
68578;SHT31;61668;45.388;11.784;2022-11-20T15:10:21;13.47;60.61
68578;SHT31;61668;45.388;11.784;2022-11-20T15:12:54;13.43;60.76
68578;SHT31;61668;45.388;11.784;2022-11-20T15:15:27;13.39;60.94
68578;SHT31;61668;45.388;11.784;2022-11-20T15:17:58;13.32;61.08
68578;SHT31;61668;45.388;11.784;2022-11-20T15:20:25;13.26;61.51
68578;SHT31;61668;45.388;11.784;2022-11-20T15:22:54;13.18;61.84
68578;SHT31;61668;45.388;11.784;2022-11-20T15:25:20;13.11;62.07
68578;SHT31;61668;45.388;11.784;2022-11-20T15:27:54;13.03;62.29
68578;SHT31;61668;45.388;11.784;2022-11-20T15:30:21;12.94;62.41
68578;SHT31;61668;45.388;11.784;2022-11-20T15:32:51;12.86;62.57
68578;SHT31;61668;45.388;11.784;2022-11-20T15:35:16;12.78;62.70
68578;SHT31;61668;45.388;11.784;2022-11-20T15:37:42;12.71;62.83
68578;SHT31;61668;45.388;11.784;2022-11-20T15:40:08;12.65;62.99
68578;SHT31;61668;45.388;11.784;2022-11-20T15:42:34;12.60;63.22
68578;SHT31;61668;45.388;11.784;2022-11-20T15:45:00;12.53;63.47
68578;SHT31;61668;45.388;11.784;2022-11-20T15:47:29;12.49;63.74
68578;SHT31;61668;45.388;11.784;2022-11-20T15:50:00;12.41;63.89
68578;SHT31;61668;45.388;11.784;2022-11-20T15:52:26;12.35;64.08
68578;SHT31;61668;45.388;11.784;2022-11-20T15:54:51;12.27;64.36
68578;SHT31;61668;45.388;11.784;2022-11-20T15:57:17;12.21;64.68
68578;SHT31;61668;45.388;11.784;2022-11-20T15:59:43;12.14;65.13
68578;SHT31;61668;45.388;11.784;2022-11-20T16:02:09;12.06;65.42
68578;SHT31;61668;45.388;11.784;2022-11-20T16:04:36;11.96;65.76
68578;SHT31;61668;45.388;11.784;2022-11-20T16:07:01;11.87;66.00
68578;SHT31;61668;45.388;11.784;2022-11-20T16:09:27;11.80;66.34
68578;SHT31;61668;45.388;11.784;2022-11-20T16:11:52;11.70;66.59
68578;SHT31;61668;45.388;11.784;2022-11-20T16:14:19;11.62;66.74
68578;SHT31;61668;45.388;11.784;2022-11-20T16:17:03;11.54;66.94
68578;SHT31;61668;45.388;11.784;2022-11-20T16:19:28;11.49;67.12
68578;SHT31;61668;45.388;11.784;2022-11-20T16:21:54;11.44;67.28
68578;SHT31;61668;45.388;11.784;2022-11-20T16:24:19;11.42;67.46
68578;SHT31;61668;45.388;11.784;2022-11-20T16:26:46;11.40;67.61
68578;SHT31;61668;45.388;11.784;2022-11-20T16:29:11;11.37;67.76
68578;SHT31;61668;45.388;11.784;2022-11-20T16:31:37;11.32;67.96
68578;SHT31;61668;45.388;11.784;2022-11-20T16:34:05;11.25;68.14
68578;SHT31;61668;45.388;11.784;2022-11-20T16:36:32;11.19;68.28
68578;SHT31;61668;45.388;11.784;2022-11-20T16:38:59;11.13;68.45
68578;SHT31;61668;45.388;11.784;2022-11-20T16:41:29;11.06;68.56
68578;SHT31;61668;45.388;11.784;2022-11-20T16:43:57;11.01;68.71
68578;SHT31;61668;45.388;11.784;2022-11-20T16:46:26;10.94;68.86
68578;SHT31;61668;45.388;11.784;2022-11-20T16:48:58;10.87;69.06
68578;SHT31;61668;45.388;11.784;2022-11-20T16:51:31;10.80;69.29
68578;SHT31;61668;45.388;11.784;2022-11-20T16:54:06;10.74;69.42
68578;SHT31;61668;45.388;11.784;2022-11-20T16:56:34;10.69;69.60
68578;SHT31;61668;45.388;11.784;2022-11-20T16:59:00;10.63;69.79
68578;SHT31;61668;45.388;11.784;2022-11-20T17:01:27;10.58;69.92
68578;SHT31;61668;45.388;11.784;2022-11-20T17:06:23;10.49;70.24
68578;SHT31;61668;45.388;11.784;2022-11-20T17:08:52;10.45;70.39
68578;SHT31;61668;45.388;11.784;2022-11-20T17:11:19;10.43;70.52
68578;SHT31;61668;45.388;11.784;2022-11-20T17:13:45;10.42;70.70
68578;SHT31;61668;45.388;11.784;2022-11-20T17:16:12;10.43;70.80
68578;SHT31;61668;45.388;11.784;2022-11-20T17:18:41;10.42;70.84
68578;SHT31;61668;45.388;11.784;2022-11-20T17:21:08;10.39;70.92
68578;SHT31;61668;45.388;11.784;2022-11-20T17:23:36;10.36;71.03
68578;SHT31;61668;45.388;11.784;2022-11-20T17:28:45;10.26;71.11
68578;SHT31;61668;45.388;11.784;2022-11-20T17:31:18;10.20;71.21
68578;SHT31;61668;45.388;11.784;2022-11-20T17:33:44;10.12;71.32
68578;SHT31;61668;45.388;11.784;2022-11-20T17:36:11;10.04;71.49
68578;SHT31;61668;45.388;11.784;2022-11-20T17:38:40;9.97;71.57
68578;SHT31;61668;45.388;11.784;2022-11-20T17:43:33;9.91;71.98
68578;SHT31;61668;45.388;11.784;2022-11-20T17:46:06;9.89;72.13
68578;SHT31;61668;45.388;11.784;2022-11-20T17:48:46;9.86;72.37
68578;SHT31;61668;45.388;11.784;2022-11-20T17:51:14;9.86;72.44
68578;SHT31;61668;45.388;11.784;2022-11-20T17:53:41;9.84;72.55
68578;SHT31;61668;45.388;11.784;2022-11-20T17:56:09;9.79;72.70
68578;SHT31;61668;45.388;11.784;2022-11-20T17:58:55;9.74;72.89
68578;SHT31;61668;45.388;11.784;2022-11-20T18:01:21;9.69;72.93
68578;SHT31;61668;45.388;11.784;2022-11-20T18:03:47;9.62;72.86
68578;SHT31;61668;45.388;11.784;2022-11-20T18:06:15;9.54;72.99